createdAt,value
2023-01-01T00:01:45.678Z,14.93
2023-01-01T00:04:14.915Z,14.94
2023-01-01T00:06:43.618Z,14.90
2023-01-01T00:09:30.086Z,14.90
2023-01-01T00:11:56.903Z,14.89
2023-01-01T00:14:23.858Z,14.87
2023-01-01T00:16:50.613Z,14.93
2023-01-01T00:19:17.320Z,14.92
2023-01-01T00:21:43.923Z,14.94
2023-01-01T00:24:10.647Z,14.95
2023-01-01T00:26:37.851Z,14.92
2023-01-01T00:29:05.220Z,14.94
2023-01-01T00:31:32.426Z,14.89
2023-01-01T00:33:59.286Z,14.81
2023-01-01T00:36:27.789Z,14.72
2023-01-01T00:38:54.899Z,14.64
2023-01-01T00:41:22.396Z,14.56
2023-01-01T00:43:49.073Z,14.47
2023-01-01T00:46:16.150Z,14.45
2023-01-01T00:49:01.603Z,14.40
2023-01-01T00:51:31.695Z,14.38
2023-01-01T00:54:03.396Z,14.39
2023-01-01T00:56:31.218Z,14.41
2023-01-01T00:59:01.107Z,14.44
2023-01-01T01:01:28.802Z,14.44
2023-01-01T01:03:55.629Z,14.46
2023-01-01T01:06:22.517Z,14.47
2023-01-01T01:08:49.283Z,14.42
2023-01-01T01:11:16.269Z,14.39
2023-01-01T01:13:44.281Z,14.32
2023-01-01T01:16:32.532Z,14.24
2023-01-01T01:19:01.628Z,14.19
2023-01-01T01:21:31.305Z,14.12
2023-01-01T01:23:59.958Z,14.06
2023-01-01T01:26:29.450Z,14.04
2023-01-01T01:28:57.743Z,14.01
2023-01-01T01:31:26.828Z,14.03
2023-01-01T01:33:53.597Z,14.03
2023-01-01T01:36:20.700Z,14.06
2023-01-01T01:38:47.785Z,14.07
2023-01-01T01:41:27.386Z,14.05
2023-01-01T01:44:03.216Z,14.03
2023-01-01T01:46:34.886Z,14.02
2023-01-01T01:49:06.248Z,13.99
2023-01-01T01:51:38.321Z,13.99
2023-01-01T01:54:12.936Z,13.96
2023-01-01T01:56:47.422Z,13.91
2023-01-01T01:59:16.129Z,13.92
2023-01-01T02:01:42.949Z,13.90
2023-01-01T02:04:10.515Z,13.90
2023-01-01T02:06:38.681Z,13.90
2023-01-01T02:09:07.499Z,13.91
2023-01-01T02:11:34.516Z,13.92
2023-01-01T02:14:02.472Z,13.93
2023-01-01T02:16:47.755Z,13.97
2023-01-01T02:19:46.322Z,14.01
2023-01-01T02:22:23.931Z,14.00
2023-01-01T02:25:06.113Z,14.00
2023-01-01T02:27:51.981Z,13.99
2023-01-01T02:30:19.440Z,14.03
2023-01-01T02:32:55.740Z,14.05
2023-01-01T02:35:38.731Z,14.06
2023-01-01T02:38:14.311Z,14.05
2023-01-01T02:40:46.579Z,14.06
2023-01-01T02:43:13.275Z,14.05
2023-01-01T02:45:40.398Z,14.04
2023-01-01T02:48:28.174Z,14.11
2023-01-01T02:51:01.932Z,14.16
2023-01-01T02:53:33.810Z,14.18
2023-01-01T02:56:54.507Z,14.15
2023-01-01T03:00:01.525Z,14.09
2023-01-01T03:02:52.357Z,14.03
2023-01-01T03:06:00.306Z,14.03
2023-01-01T03:08:52.836Z,14.03
2023-01-01T03:11:22.527Z,14.01
2023-01-01T03:14:16.210Z,14.01
2023-01-01T03:16:49.078Z,14.02
2023-01-01T03:19:20.654Z,14.04
2023-01-01T03:22:26.120Z,14.08
2023-01-01T03:24:58.764Z,14.04
2023-01-01T03:27:31.536Z,14.01
2023-01-01T03:30:01.606Z,14.02
2023-01-01T03:33:07.973Z,14.03
2023-01-01T03:35:43.817Z,14.01
2023-01-01T03:38:24.325Z,14.04
2023-01-01T03:40:56.285Z,14.06
2023-01-01T03:43:42.331Z,14.05
2023-01-01T03:46:12.054Z,14.07
2023-01-01T03:49:02.591Z,14.05
2023-01-01T03:51:48.600Z,14.07
2023-01-01T03:54:47.895Z,14.07
2023-01-01T03:57:33.295Z,14.07
2023-01-01T04:00:11.417Z,14.07
2023-01-01T04:03:00.179Z,14.05
2023-01-01T04:05:28.735Z,14.06
2023-01-01T04:07:56.483Z,14.06
2023-01-01T04:10:24.810Z,14.05
2023-01-01T04:12:55.658Z,14.04
2023-01-01T04:15:25.413Z,14.02
2023-01-01T04:17:53.053Z,14.02
2023-01-01T04:20:20.453Z,14.00
2023-01-01T04:22:47.290Z,13.99
2023-01-01T04:25:14.686Z,13.96
2023-01-01T04:27:41.840Z,13.97
2023-01-01T04:30:12.181Z,13.98
2023-01-01T04:32:39.306Z,14.00
2023-01-01T04:35:07.477Z,14.01
2023-01-01T04:37:37.086Z,14.03
2023-01-01T04:40:04.944Z,14.05
2023-01-01T04:42:31.725Z,14.04
2023-01-01T04:45:00.468Z,14.05
2023-01-01T04:47:27.407Z,14.05
2023-01-01T04:49:54.601Z,14.05
2023-01-01T04:52:40.045Z,14.07
2023-01-01T04:55:07.045Z,14.08
2023-01-01T04:57:33.646Z,14.09
2023-01-01T05:00:00.499Z,14.07
2023-01-01T05:02:27.448Z,14.05
2023-01-01T05:04:54.352Z,14.08
2023-01-01T05:07:20.904Z,14.09
2023-01-01T05:09:47.563Z,14.08
2023-01-01T05:12:14.288Z,14.09
2023-01-01T05:14:40.927Z,14.09
2023-01-01T05:17:07.468Z,14.09
2023-01-01T05:19:34.201Z,14.12
2023-01-01T05:22:05.380Z,14.12
2023-01-01T05:24:36.503Z,14.14
2023-01-01T05:27:03.224Z,14.13
2023-01-01T05:29:33.030Z,14.09
2023-01-01T05:31:59.720Z,14.06
2023-01-01T05:34:27.478Z,14.05
2023-01-01T05:36:55.202Z,14.04
2023-01-01T05:39:21.834Z,14.01
2023-01-01T05:41:48.467Z,13.97
2023-01-01T05:44:16.606Z,13.91
2023-01-01T05:46:43.274Z,13.83
2023-01-01T05:49:29.752Z,13.73
2023-01-01T05:51:56.358Z,13.69
2023-01-01T05:54:23.105Z,13.64
2023-01-01T05:56:49.682Z,13.56
2023-01-01T05:59:16.351Z,13.52
2023-01-01T06:01:45.876Z,13.50
2023-01-01T06:04:14.122Z,13.46
2023-01-01T06:06:40.952Z,13.44
2023-01-01T06:09:07.607Z,13.44
2023-01-01T06:11:34.333Z,13.41
2023-01-01T06:14:01.708Z,13.38
2023-01-01T06:16:30.125Z,13.36
2023-01-01T06:18:56.846Z,13.35
2023-01-01T06:21:26.681Z,13.40
2023-01-01T06:23:56.960Z,13.42
2023-01-01T06:26:26.440Z,13.44
2023-01-01T06:28:55.558Z,13.46
2023-01-01T06:31:22.650Z,13.48
2023-01-01T06:33:50.954Z,13.50
2023-01-01T06:36:20.049Z,13.48
2023-01-01T06:38:49.045Z,13.48
2023-01-01T06:41:20.065Z,13.47
2023-01-01T06:43:47.638Z,13.47
2023-01-01T06:46:23.391Z,13.47
2023-01-01T06:48:53.212Z,13.48
2023-01-01T06:51:25.694Z,13.48
2023-01-01T06:53:53.387Z,13.48
2023-01-01T06:56:20.950Z,13.48
2023-01-01T06:58:47.696Z,13.49
2023-01-01T07:01:20.256Z,13.49
2023-01-01T07:03:58.451Z,13.54
2023-01-01T07:06:26.585Z,13.63
2023-01-01T07:08:53.576Z,13.65
2023-01-01T07:11:21.105Z,13.71
2023-01-01T07:13:47.924Z,13.73
2023-01-01T07:16:15.386Z,13.73
2023-01-01T07:18:42.286Z,13.72
2023-01-01T07:21:44.580Z,13.67
2023-01-01T07:24:16.320Z,13.64
2023-01-01T07:26:43.535Z,13.62
2023-01-01T07:29:10.121Z,13.59
2023-01-01T07:31:39.020Z,13.60
2023-01-01T07:34:06.896Z,13.61
2023-01-01T07:36:33.648Z,13.61
2023-01-01T07:39:00.598Z,13.61
2023-01-01T07:41:27.196Z,13.62
2023-01-01T07:43:53.854Z,13.59
2023-01-01T07:46:20.527Z,13.60
2023-01-01T07:48:47.435Z,13.60
2023-01-01T07:51:14.037Z,13.60
2023-01-01T07:53:41.810Z,13.59
2023-01-01T07:56:08.692Z,13.54
2023-01-01T07:58:38.664Z,13.50
2023-01-01T08:01:05.313Z,13.48
2023-01-01T08:03:33.012Z,13.41
2023-01-01T08:05:59.637Z,13.36
2023-01-01T08:08:26.277Z,13.28
2023-01-01T08:10:52.793Z,13.22
2023-01-01T08:13:19.422Z,13.15
2023-01-01T08:18:36.474Z,13.03
2023-01-01T08:21:04.497Z,12.95
2023-01-01T08:23:31.347Z,12.87
2023-01-01T08:26:02.728Z,12.83
2023-01-01T08:28:30.869Z,12.82
2023-01-01T08:30:57.848Z,12.80
2023-01-01T08:33:25.195Z,12.77
2023-01-01T08:35:54.491Z,12.73
2023-01-01T08:38:21.548Z,12.70
2023-01-01T08:40:48.092Z,12.69
2023-01-01T08:43:14.783Z,12.69
2023-01-01T08:45:41.486Z,12.70
2023-01-01T08:48:08.115Z,12.69
2023-01-01T08:50:34.877Z,12.66
2023-01-01T08:53:01.532Z,12.66
2023-01-01T08:55:28.127Z,12.63
2023-01-01T08:57:54.793Z,12.63
2023-01-01T09:00:21.372Z,12.61
2023-01-01T09:02:48.176Z,12.61
2023-01-01T09:05:14.899Z,12.60
2023-01-01T09:07:41.594Z,12.59
2023-01-01T09:10:09.614Z,12.58
2023-01-01T09:12:36.308Z,12.56
2023-01-01T09:15:03.190Z,12.55
2023-01-01T09:17:30.876Z,12.54
2023-01-01T09:19:57.601Z,12.53
2023-01-01T09:22:24.317Z,12.52
2023-01-01T09:24:50.937Z,12.51
2023-01-01T09:27:17.512Z,12.48
2023-01-01T09:29:44.243Z,12.48
2023-01-01T09:32:10.839Z,12.47
2023-01-01T09:34:37.440Z,12.47
2023-01-01T09:37:04.172Z,12.47
2023-01-01T09:39:30.880Z,12.48
2023-01-01T09:42:17.007Z,12.50
2023-01-01T09:44:49.365Z,12.51
2023-01-01T09:47:29.762Z,12.53
2023-01-01T09:50:05.825Z,12.55
2023-01-01T09:52:48.727Z,12.56
2023-01-01T09:55:23.039Z,12.59
2023-01-01T09:57:49.701Z,12.59
2023-01-01T10:00:18.818Z,12.59
2023-01-01T10:03:00.104Z,12.59
2023-01-01T10:05:26.702Z,12.55
2023-01-01T10:08:05.843Z,12.54
2023-01-01T10:10:41.583Z,12.56
2023-01-01T10:13:30.042Z,12.59
2023-01-01T10:16:05.762Z,12.62
2023-01-01T10:18:38.294Z,12.65
2023-01-01T10:21:27.015Z,12.67
2023-01-01T10:24:02.497Z,12.67
2023-01-01T10:26:31.553Z,12.68
2023-01-01T10:29:11.796Z,12.65
2023-01-01T10:31:45.358Z,12.62
2023-01-01T10:34:38.918Z,12.61
2023-01-01T10:37:06.979Z,12.57
2023-01-01T10:39:33.628Z,12.56
2023-01-01T10:42:02.875Z,12.56
2023-01-01T10:47:30.019Z,12.59
2023-01-01T10:50:00.235Z,12.62
2023-01-01T10:52:36.750Z,12.63
2023-01-01T10:55:04.713Z,12.65
2023-01-01T10:57:38.019Z,12.68
2023-01-01T11:00:12.745Z,12.68
2023-01-01T11:02:39.409Z,12.68
2023-01-01T11:05:21.957Z,12.66
2023-01-01T11:07:49.262Z,12.68
2023-01-01T11:10:25.083Z,12.70
2023-01-01T11:13:09.804Z,12.73
2023-01-01T11:15:40.028Z,12.75
2023-01-01T11:18:22.650Z,12.72
2023-01-01T11:20:57.594Z,12.71
2023-01-01T11:23:36.412Z,12.67
2023-01-01T11:26:18.962Z,12.64
2023-01-01T11:29:17.703Z,12.61
2023-01-01T11:31:47.177Z,12.61
2023-01-01T11:34:36.799Z,12.59
2023-01-01T11:37:21.313Z,12.60
2023-01-01T11:39:51.205Z,12.59
2023-01-01T11:42:29.312Z,12.54
2023-01-01T11:44:59.467Z,12.54
2023-01-01T11:47:42.627Z,12.52
2023-01-01T11:50:29.852Z,12.52
2023-01-01T11:52:58.732Z,12.51
2023-01-01T11:55:31.444Z,12.49
2023-01-01T11:58:13.017Z,12.48
2023-01-01T12:00:42.991Z,12.49
2023-01-01T12:03:33.406Z,12.52
2023-01-01T12:06:14.940Z,12.57
2023-01-01T12:09:18.535Z,12.58
2023-01-01T12:11:54.778Z,12.59
2023-01-01T12:14:32.959Z,12.60
2023-01-01T12:17:24.697Z,12.57
2023-01-01T12:20:16.601Z,12.59
2023-01-01T12:22:43.257Z,12.59
2023-01-01T12:25:16.324Z,12.62
2023-01-01T12:27:46.117Z,12.64
2023-01-01T12:30:18.592Z,12.65
2023-01-01T12:32:48.219Z,12.65
2023-01-01T12:35:34.338Z,12.63
2023-01-01T12:38:17.257Z,12.64
2023-01-01T12:41:02.533Z,12.63
2023-01-01T12:43:53.910Z,12.65
2023-01-01T12:46:27.124Z,12.63
2023-01-01T12:49:08.903Z,12.63
2023-01-01T12:52:02.697Z,12.63
2023-01-01T12:54:47.840Z,12.63
2023-01-01T12:57:40.595Z,12.65
2023-01-01T13:00:16.653Z,12.69
2023-01-01T13:02:55.072Z,12.72
2023-01-01T13:05:32.898Z,12.74
2023-01-01T13:08:03.521Z,12.78
2023-01-01T13:10:39.948Z,12.81
2023-01-01T13:15:57.656Z,12.88
2023-01-01T13:18:37.291Z,12.89
2023-01-01T13:21:08.824Z,12.94
2023-01-01T13:23:39.489Z,12.95
2023-01-01T13:26:18.174Z,12.97
2023-01-01T13:28:59.279Z,12.97
2023-01-01T13:31:37.905Z,12.98
2023-01-01T13:34:32.499Z,12.99
2023-01-01T13:37:11.554Z,12.99
2023-01-01T13:40:00.681Z,13.00
2023-01-01T13:42:52.311Z,13.02
2023-01-01T13:48:45.449Z,13.03
2023-01-01T13:51:40.134Z,13.03
2023-01-01T13:54:26.717Z,13.01
2023-01-01T13:57:38.215Z,13.01
2023-01-01T14:00:07.648Z,12.98
2023-01-01T14:02:45.079Z,12.95
2023-01-01T14:05:11.996Z,12.93
2023-01-01T14:07:52.376Z,12.90
2023-01-01T14:10:26.777Z,12.88
2023-01-01T14:12:55.463Z,12.88
2023-01-01T14:15:30.058Z,12.88
2023-01-01T14:18:00.356Z,12.88
2023-01-01T14:20:47.232Z,12.90
2023-01-01T14:23:39.422Z,12.89
2023-01-01T14:26:13.180Z,12.90
2023-01-01T14:28:40.767Z,12.88
2023-01-01T14:31:14.142Z,12.89
2023-01-01T14:33:40.785Z,12.90
2023-01-01T14:36:26.544Z,12.90
2023-01-01T14:38:55.746Z,12.90
2023-01-01T14:41:32.497Z,12.90
2023-01-01T14:44:05.001Z,12.88
2023-01-01T14:46:32.182Z,12.85
2023-01-01T14:49:03.652Z,12.85
2023-01-01T14:51:32.867Z,12.84
2023-01-01T14:54:02.807Z,12.82
2023-01-01T14:56:32.134Z,12.82
2023-01-01T14:59:12.259Z,12.81
2023-01-01T15:01:43.019Z,12.79
2023-01-01T15:04:27.256Z,12.78
2023-01-01T15:07:03.571Z,12.74
2023-01-01T15:09:32.169Z,12.73
2023-01-01T15:12:00.150Z,12.70
2023-01-01T15:14:39.945Z,12.68
2023-01-01T15:17:11.449Z,12.66
2023-01-01T15:19:42.963Z,12.65
2023-01-01T15:22:21.892Z,12.63
2023-01-01T15:24:49.481Z,12.60
2023-01-01T15:27:37.290Z,12.59
2023-01-01T15:30:13.230Z,12.56
2023-01-01T15:32:41.163Z,12.55
2023-01-01T15:35:31.714Z,12.53
2023-01-01T15:38:18.997Z,12.51
2023-01-01T15:40:52.731Z,12.49
2023-01-01T15:43:25.698Z,12.48
2023-01-01T15:45:55.670Z,12.46
2023-01-01T15:48:27.414Z,12.43
2023-01-01T15:50:54.025Z,12.42
2023-01-01T15:53:27.254Z,12.41
2023-01-01T15:56:05.753Z,12.39
2023-01-01T15:58:39.729Z,12.37
2023-01-01T16:01:16.193Z,12.37
2023-01-01T16:03:45.901Z,12.36
2023-01-01T16:06:21.505Z,12.37
2023-01-01T16:08:48.557Z,12.36
2023-01-01T16:11:15.340Z,12.35
2023-01-01T16:13:42.224Z,12.35
2023-01-01T16:16:29.040Z,12.35
2023-01-01T16:18:56.985Z,12.36
2023-01-01T16:21:29.327Z,12.36
2023-01-01T16:23:56.088Z,12.36
2023-01-01T16:26:23.038Z,12.38
2023-01-01T16:28:49.754Z,12.38
2023-01-01T16:31:24.920Z,12.36
2023-01-01T16:33:57.107Z,12.36
2023-01-01T16:36:24.637Z,12.36
2023-01-01T16:38:51.218Z,12.36
2023-01-01T16:41:18.522Z,12.37
2023-01-01T16:43:47.031Z,12.37
2023-01-01T16:46:14.624Z,12.36
2023-01-01T16:48:41.960Z,12.35
2023-01-01T16:51:18.303Z,12.35
2023-01-01T16:53:45.328Z,12.35
2023-01-01T16:56:12.822Z,12.35
2023-01-01T16:59:03.329Z,12.36
2023-01-01T17:01:30.975Z,12.36
2023-01-01T17:03:58.090Z,12.37
2023-01-01T17:06:24.853Z,12.38
2023-01-01T17:08:53.411Z,12.38
2023-01-01T17:11:21.121Z,12.39
2023-01-01T17:13:48.471Z,12.40
2023-01-01T17:16:23.613Z,12.41
2023-01-01T17:21:42.125Z,12.37
2023-01-01T17:24:08.998Z,12.38
2023-01-01T17:26:35.707Z,12.38
2023-01-01T17:29:03.486Z,12.38
2023-01-01T17:31:30.757Z,12.38
2023-01-01T17:33:57.807Z,12.36
2023-01-01T17:36:27.348Z,12.38
2023-01-01T17:38:54.588Z,12.36
2023-01-01T17:41:21.797Z,12.35
2023-01-01T17:43:52.735Z,12.36
2023-01-01T17:46:25.159Z,12.36
2023-01-01T17:48:53.428Z,12.36
2023-01-01T17:51:20.555Z,12.35
2023-01-01T17:53:48.137Z,12.36
2023-01-01T17:56:17.208Z,12.35
2023-01-01T17:58:45.905Z,12.37
2023-01-01T18:01:21.719Z,12.38
2023-01-01T18:03:56.408Z,12.38
2023-01-01T18:06:23.919Z,12.38
2023-01-01T18:08:59.175Z,12.35
2023-01-01T18:11:28.671Z,12.34
2023-01-01T18:14:16.334Z,12.31
2023-01-01T18:16:46.378Z,12.29
2023-01-01T18:19:13.391Z,12.28
2023-01-01T18:21:43.247Z,12.25
2023-01-01T18:24:13.727Z,12.23
2023-01-01T18:26:40.638Z,12.21
2023-01-01T18:29:07.713Z,12.19
2023-01-01T18:31:35.082Z,12.16
2023-01-01T18:34:04.374Z,12.15
2023-01-01T18:36:33.930Z,12.13
2023-01-01T18:39:41.742Z,12.10
2023-01-01T18:42:15.039Z,12.09
2023-01-01T18:44:41.745Z,12.07
2023-01-01T18:47:20.192Z,12.06
2023-01-01T18:49:52.019Z,12.04
2023-01-01T18:52:25.054Z,12.01
2023-01-01T18:55:12.195Z,12.00
2023-01-01T18:57:39.984Z,11.97
2023-01-01T19:00:15.916Z,11.95
2023-01-01T19:02:54.160Z,11.94
2023-01-01T19:05:24.771Z,11.94
2023-01-01T19:08:07.510Z,11.92
2023-01-01T19:10:47.905Z,11.90
2023-01-01T19:13:22.004Z,11.88
2023-01-01T19:16:00.963Z,11.86
2023-01-01T19:18:33.354Z,11.84
2023-01-01T19:21:20.093Z,11.83
2023-01-01T19:23:51.164Z,11.81
2023-01-01T19:26:26.878Z,11.80
2023-01-01T19:28:59.948Z,11.79
2023-01-01T19:31:26.589Z,11.78
2023-01-01T19:33:54.622Z,11.79
2023-01-01T19:36:21.402Z,11.76
2023-01-01T19:38:47.988Z,11.74
2023-01-01T19:41:14.742Z,11.74
2023-01-01T19:43:41.362Z,11.74
2023-01-01T19:46:08.008Z,11.70
2023-01-01T19:48:35.009Z,11.68
2023-01-01T19:51:01.637Z,11.67
2023-01-01T19:53:28.225Z,11.63
2023-01-01T19:55:54.846Z,11.62
2023-01-01T19:58:23.122Z,11.60
2023-01-01T20:00:50.763Z,11.60
2023-01-01T20:06:05.141Z,11.57
2023-01-01T20:08:32.480Z,11.55
2023-01-01T20:10:59.569Z,11.54
2023-01-01T20:13:26.313Z,11.53
2023-01-01T20:15:53.118Z,11.52
2023-01-01T20:18:19.850Z,11.50
2023-01-01T20:21:25.304Z,11.51
2023-01-01T20:23:55.761Z,11.51
2023-01-01T20:26:27.374Z,11.52
2023-01-01T20:29:13.992Z,11.48
2023-01-01T20:31:40.641Z,11.49
2023-01-01T20:34:07.362Z,11.50
2023-01-01T20:36:52.647Z,11.51
2023-01-01T20:39:19.499Z,11.50
2023-01-01T20:42:06.466Z,11.51
2023-01-01T20:44:33.007Z,11.50
2023-01-01T20:46:59.678Z,11.51
2023-01-01T20:49:26.386Z,11.51
2023-01-01T20:51:53.301Z,11.51
2023-01-01T20:54:21.145Z,11.51
2023-01-01T20:56:48.272Z,11.52
2023-01-01T20:59:34.848Z,11.48
2023-01-01T21:02:10.465Z,11.45
2023-01-01T21:04:39.365Z,11.46
2023-01-01T21:07:08.415Z,11.45
2023-01-01T21:09:35.348Z,11.44
2023-01-01T21:12:03.064Z,11.47
2023-01-01T21:14:29.865Z,11.53
2023-01-01T21:16:56.626Z,11.55
2023-01-01T21:19:26.968Z,11.55
2023-01-01T21:21:56.068Z,11.58
2023-01-01T21:24:28.417Z,11.58
2023-01-01T21:27:17.963Z,11.59
2023-01-01T21:29:54.763Z,11.58
2023-01-01T21:32:23.084Z,11.58
2023-01-01T21:34:51.861Z,11.56
2023-01-01T21:37:43.125Z,11.56
2023-01-01T21:40:34.935Z,11.56
2023-01-01T21:43:19.313Z,11.55
2023-01-01T21:45:49.304Z,11.53
2023-01-01T21:48:37.058Z,11.52
2023-01-01T21:51:28.459Z,11.52
2023-01-01T21:54:09.957Z,11.51
2023-01-01T21:56:46.879Z,11.52
2023-01-01T21:59:28.486Z,11.51
2023-01-01T22:01:55.268Z,11.50
2023-01-01T22:04:24.602Z,11.51
2023-01-01T22:06:51.229Z,11.49
2023-01-01T22:09:22.880Z,11.51
2023-01-01T22:11:52.284Z,11.50
2023-01-01T22:14:23.368Z,11.51
2023-01-01T22:16:54.865Z,11.51
2023-01-01T22:19:23.964Z,11.51
2023-01-01T22:21:53.245Z,11.50
2023-01-01T22:24:31.546Z,11.52
2023-01-01T22:27:20.517Z,11.53
2023-01-01T22:29:47.215Z,11.53
2023-01-01T22:32:29.917Z,11.53
2023-01-01T22:35:15.186Z,11.53
2023-01-01T22:37:42.381Z,11.54
2023-01-01T22:40:37.120Z,11.53
2023-01-01T22:43:13.567Z,11.54
2023-01-01T22:45:46.343Z,11.54
2023-01-01T22:48:23.621Z,11.54
2023-01-01T22:50:52.032Z,11.54
2023-01-01T22:53:18.712Z,11.53
2023-01-01T22:55:46.136Z,11.52
2023-01-01T22:58:12.778Z,11.52
2023-01-01T23:00:39.622Z,11.52
2023-01-01T23:03:06.311Z,11.50
2023-01-01T23:05:33.135Z,11.51
2023-01-01T23:07:59.765Z,11.49
2023-01-01T23:10:26.482Z,11.50
2023-01-01T23:12:53.209Z,11.50
2023-01-01T23:15:38.828Z,11.50
2023-01-01T23:18:05.599Z,11.51
2023-01-01T23:20:32.326Z,11.49
2023-01-01T23:22:59.021Z,11.50
2023-01-01T23:25:26.101Z,11.52
2023-01-01T23:27:53.434Z,11.52
2023-01-01T23:30:20.291Z,11.51
2023-01-01T23:32:47.175Z,11.50
2023-01-01T23:35:14.076Z,11.52
2023-01-01T23:37:40.888Z,11.54
2023-01-01T23:40:08.894Z,11.53
2023-01-01T23:42:35.474Z,11.55
2023-01-01T23:45:02.254Z,11.56
2023-01-01T23:47:28.881Z,11.57
2023-01-01T23:49:55.613Z,11.58
2023-01-01T23:52:22.346Z,11.59
2023-01-01T23:54:48.867Z,11.62
2023-01-01T23:57:16.567Z,11.62
2023-01-01T23:59:43.144Z,11.62
